sensor_id;sensor_type;location;lat;lon;timestamp;P1;durP1;ratioP1;P2;durP2;ratioP2
60726;SDS011;46577;49.004;12.120;2022-10-29T00:00:34;17.77;;;9.87;;
60726;SDS011;46577;49.004;12.120;2022-10-29T00:02:59;20.70;;;10.30;;
60726;SDS011;46577;49.004;12.120;2022-10-29T00:05:25;20.10;;;10.33;;
60726;SDS011;46577;49.004;12.120;2022-10-29T00:07:51;25.20;;;11.07;;
60726;SDS011;46577;49.004;12.120;2022-10-29T00:10:16;17.57;;;9.87;;
60726;SDS011;46577;49.004;12.120;2022-10-29T00:12:42;21.30;;;11.23;;
60726;SDS011;46577;49.004;12.120;2022-10-29T00:15:07;15.10;;;9.57;;
60726;SDS011;46577;49.004;12.120;2022-10-29T00:17:33;25.93;;;12.57;;
60726;SDS011;46577;49.004;12.120;2022-10-29T00:19:59;16.33;;;9.83;;
60726;SDS011;46577;49.004;12.120;2022-10-29T00:22:24;17.97;;;9.67;;
60726;SDS011;46577;49.004;12.120;2022-10-29T00:24:50;17.13;;;11.10;;
60726;SDS011;46577;49.004;12.120;2022-10-29T00:27:16;16.70;;;9.90;;
60726;SDS011;46577;49.004;12.120;2022-10-29T00:29:41;18.30;;;10.60;;
60726;SDS011;46577;49.004;12.120;2022-10-29T00:32:07;19.10;;;10.47;;
60726;SDS011;46577;49.004;12.120;2022-10-29T00:34:34;20.40;;;12.07;;
60726;SDS011;46577;49.004;12.120;2022-10-29T00:37:01;22.27;;;11.00;;
60726;SDS011;46577;49.004;12.120;2022-10-29T00:39:27;20.07;;;10.90;;
60726;SDS011;46577;49.004;12.120;2022-10-29T00:41:53;20.03;;;11.37;;
60726;SDS011;46577;49.004;12.120;2022-10-29T00:44:29;20.90;;;11.73;;
60726;SDS011;46577;49.004;12.120;2022-10-29T00:49:28;22.07;;;11.00;;
60726;SDS011;46577;49.004;12.120;2022-10-29T00:51:55;22.37;;;10.40;;
60726;SDS011;46577;49.004;12.120;2022-10-29T00:54:21;19.73;;;10.97;;
60726;SDS011;46577;49.004;12.120;2022-10-29T00:56:58;21.60;;;12.20;;
60726;SDS011;46577;49.004;12.120;2022-10-29T00:59:27;21.70;;;9.53;;
60726;SDS011;46577;49.004;12.120;2022-10-29T01:01:53;20.37;;;10.90;;
60726;SDS011;46577;49.004;12.120;2022-10-29T01:04:20;24.80;;;12.50;;
60726;SDS011;46577;49.004;12.120;2022-10-29T01:06:47;17.07;;;10.23;;
60726;SDS011;46577;49.004;12.120;2022-10-29T01:09:13;15.83;;;9.70;;
60726;SDS011;46577;49.004;12.120;2022-10-29T01:17:29;16.33;;;10.03;;
60726;SDS011;46577;49.004;12.120;2022-10-29T01:20:31;20.27;;;10.10;;
60726;SDS011;46577;49.004;12.120;2022-10-29T01:33:54;21.00;;;10.47;;
60726;SDS011;46577;49.004;12.120;2022-10-29T01:39:05;12.10;;;8.60;;
60726;SDS011;46577;49.004;12.120;2022-10-29T01:41:43;17.80;;;10.57;;
60726;SDS011;46577;49.004;12.120;2022-10-29T01:47:11;17.80;;;10.50;;
60726;SDS011;46577;49.004;12.120;2022-10-29T01:49:43;25.47;;;10.77;;
60726;SDS011;46577;49.004;12.120;2022-10-29T01:52:14;15.60;;;9.63;;
60726;SDS011;46577;49.004;12.120;2022-10-29T01:54:44;30.10;;;11.07;;
60726;SDS011;46577;49.004;12.120;2022-10-29T02:00:04;21.50;;;10.30;;
60726;SDS011;46577;49.004;12.120;2022-10-29T02:11:07;20.13;;;10.70;;
60726;SDS011;46577;49.004;12.120;2022-10-29T02:13:48;18.20;;;9.50;;
60726;SDS011;46577;49.004;12.120;2022-10-29T02:16:18;17.57;;;10.50;;
60726;SDS011;46577;49.004;12.120;2022-10-29T02:18:46;17.77;;;9.60;;
60726;SDS011;46577;49.004;12.120;2022-10-29T02:21:14;21.13;;;10.90;;
60726;SDS011;46577;49.004;12.120;2022-10-29T02:23:40;21.50;;;10.20;;
60726;SDS011;46577;49.004;12.120;2022-10-29T02:26:06;21.20;;;11.87;;
60726;SDS011;46577;49.004;12.120;2022-10-29T02:28:31;20.30;;;11.97;;
60726;SDS011;46577;49.004;12.120;2022-10-29T02:30:57;23.27;;;11.73;;
60726;SDS011;46577;49.004;12.120;2022-10-29T02:33:22;18.47;;;11.63;;
60726;SDS011;46577;49.004;12.120;2022-10-29T02:35:48;18.10;;;11.23;;
60726;SDS011;46577;49.004;12.120;2022-10-29T02:38:13;17.53;;;10.37;;
60726;SDS011;46577;49.004;12.120;2022-10-29T02:40:39;19.53;;;10.37;;
60726;SDS011;46577;49.004;12.120;2022-10-29T02:43:05;17.20;;;10.07;;
60726;SDS011;46577;49.004;12.120;2022-10-29T02:45:30;21.53;;;9.90;;
60726;SDS011;46577;49.004;12.120;2022-10-29T02:47:56;18.97;;;10.00;;
60726;SDS011;46577;49.004;12.120;2022-10-29T02:50:21;16.53;;;8.57;;
60726;SDS011;46577;49.004;12.120;2022-10-29T02:52:47;21.20;;;9.47;;
60726;SDS011;46577;49.004;12.120;2022-10-29T02:55:13;20.33;;;9.30;;
60726;SDS011;46577;49.004;12.120;2022-10-29T02:57:38;16.00;;;9.70;;
60726;SDS011;46577;49.004;12.120;2022-10-29T03:00:07;17.97;;;10.13;;
60726;SDS011;46577;49.004;12.120;2022-10-29T03:02:33;14.20;;;9.43;;
60726;SDS011;46577;49.004;12.120;2022-10-29T03:04:59;19.33;;;9.90;;
60726;SDS011;46577;49.004;12.120;2022-10-29T03:07:24;18.60;;;10.30;;
60726;SDS011;46577;49.004;12.120;2022-10-29T03:09:50;19.10;;;10.50;;
60726;SDS011;46577;49.004;12.120;2022-10-29T03:12:15;20.40;;;10.83;;
60726;SDS011;46577;49.004;12.120;2022-10-29T03:14:41;21.60;;;10.63;;
60726;SDS011;46577;49.004;12.120;2022-10-29T03:17:06;23.40;;;11.50;;
60726;SDS011;46577;49.004;12.120;2022-10-29T03:19:32;20.87;;;10.37;;
60726;SDS011;46577;49.004;12.120;2022-10-29T03:21:58;19.73;;;10.33;;
60726;SDS011;46577;49.004;12.120;2022-10-29T03:24:23;23.17;;;11.10;;
60726;SDS011;46577;49.004;12.120;2022-10-29T03:26:49;21.47;;;10.93;;
60726;SDS011;46577;49.004;12.120;2022-10-29T03:29:14;21.03;;;11.50;;
60726;SDS011;46577;49.004;12.120;2022-10-29T03:31:40;23.30;;;12.73;;
60726;SDS011;46577;49.004;12.120;2022-10-29T03:34:05;20.40;;;11.13;;
60726;SDS011;46577;49.004;12.120;2022-10-29T03:36:31;28.00;;;14.47;;
60726;SDS011;46577;49.004;12.120;2022-10-29T03:38:57;28.50;;;13.50;;
60726;SDS011;46577;49.004;12.120;2022-10-29T03:41:22;19.87;;;12.43;;
60726;SDS011;46577;49.004;12.120;2022-10-29T03:43:48;27.10;;;12.40;;
60726;SDS011;46577;49.004;12.120;2022-10-29T03:46:14;31.73;;;12.30;;
60726;SDS011;46577;49.004;12.120;2022-10-29T03:48:39;28.53;;;12.90;;
60726;SDS011;46577;49.004;12.120;2022-10-29T03:51:05;20.17;;;12.50;;
60726;SDS011;46577;49.004;12.120;2022-10-29T03:53:31;27.60;;;12.10;;
60726;SDS011;46577;49.004;12.120;2022-10-29T03:55:58;28.93;;;12.60;;
60726;SDS011;46577;49.004;12.120;2022-10-29T03:58:24;30.30;;;14.00;;
60726;SDS011;46577;49.004;12.120;2022-10-29T04:00:57;31.87;;;13.60;;
60726;SDS011;46577;49.004;12.120;2022-10-29T04:03:27;33.63;;;15.00;;
60726;SDS011;46577;49.004;12.120;2022-10-29T04:05:54;30.00;;;15.33;;
60726;SDS011;46577;49.004;12.120;2022-10-29T04:08:20;28.23;;;15.00;;
60726;SDS011;46577;49.004;12.120;2022-10-29T04:10:47;27.20;;;13.70;;
60726;SDS011;46577;49.004;12.120;2022-10-29T04:13:13;27.13;;;14.77;;
60726;SDS011;46577;49.004;12.120;2022-10-29T04:15:39;28.97;;;16.10;;
60726;SDS011;46577;49.004;12.120;2022-10-29T04:18:05;32.93;;;15.13;;
60726;SDS011;46577;49.004;12.120;2022-10-29T04:20:31;30.30;;;15.93;;
60726;SDS011;46577;49.004;12.120;2022-10-29T04:22:57;32.47;;;16.03;;
60726;SDS011;46577;49.004;12.120;2022-10-29T04:25:22;37.50;;;15.83;;
60726;SDS011;46577;49.004;12.120;2022-10-29T04:27:48;31.30;;;15.20;;
60726;SDS011;46577;49.004;12.120;2022-10-29T04:30:14;25.50;;;14.83;;
60726;SDS011;46577;49.004;12.120;2022-10-29T04:32:39;27.70;;;14.10;;
60726;SDS011;46577;49.004;12.120;2022-10-29T04:35:05;32.10;;;15.50;;
60726;SDS011;46577;49.004;12.120;2022-10-29T04:37:31;29.97;;;14.63;;
60726;SDS011;46577;49.004;12.120;2022-10-29T04:39:56;34.07;;;13.77;;
60726;SDS011;46577;49.004;12.120;2022-10-29T04:42:22;30.43;;;15.20;;
60726;SDS011;46577;49.004;12.120;2022-10-29T04:44:47;43.43;;;16.73;;
60726;SDS011;46577;49.004;12.120;2022-10-29T04:47:13;29.53;;;15.10;;
60726;SDS011;46577;49.004;12.120;2022-10-29T04:49:38;33.63;;;16.03;;
60726;SDS011;46577;49.004;12.120;2022-10-29T04:52:04;32.33;;;16.97;;
60726;SDS011;46577;49.004;12.120;2022-10-29T04:54:30;36.23;;;17.20;;
60726;SDS011;46577;49.004;12.120;2022-10-29T04:56:55;38.53;;;18.27;;
60726;SDS011;46577;49.004;12.120;2022-10-29T04:59:21;33.90;;;17.83;;
60726;SDS011;46577;49.004;12.120;2022-10-29T05:01:46;35.13;;;16.80;;
60726;SDS011;46577;49.004;12.120;2022-10-29T05:04:12;41.10;;;16.33;;
60726;SDS011;46577;49.004;12.120;2022-10-29T05:06:37;34.80;;;14.87;;
60726;SDS011;46577;49.004;12.120;2022-10-29T05:09:03;29.73;;;14.70;;
60726;SDS011;46577;49.004;12.120;2022-10-29T05:11:29;36.97;;;15.67;;
60726;SDS011;46577;49.004;12.120;2022-10-29T05:13:55;38.33;;;15.70;;
60726;SDS011;46577;49.004;12.120;2022-10-29T05:16:20;34.13;;;16.37;;
60726;SDS011;46577;49.004;12.120;2022-10-29T05:18:46;33.47;;;15.53;;
60726;SDS011;46577;49.004;12.120;2022-10-29T05:21:11;32.40;;;15.90;;
60726;SDS011;46577;49.004;12.120;2022-10-29T05:23:37;35.03;;;16.53;;
60726;SDS011;46577;49.004;12.120;2022-10-29T05:26:03;37.90;;;16.90;;
60726;SDS011;46577;49.004;12.120;2022-10-29T05:28:28;28.40;;;14.60;;
60726;SDS011;46577;49.004;12.120;2022-10-29T05:30:54;34.13;;;15.33;;
60726;SDS011;46577;49.004;12.120;2022-10-29T05:33:21;32.67;;;14.40;;
60726;SDS011;46577;49.004;12.120;2022-10-29T05:35:48;30.77;;;13.97;;
60726;SDS011;46577;49.004;12.120;2022-10-29T05:38:14;39.63;;;15.10;;
60726;SDS011;46577;49.004;12.120;2022-10-29T05:40:40;31.77;;;15.13;;
60726;SDS011;46577;49.004;12.120;2022-10-29T05:43:08;33.80;;;14.17;;
60726;SDS011;46577;49.004;12.120;2022-10-29T05:45:38;29.23;;;15.53;;
60726;SDS011;46577;49.004;12.120;2022-10-29T05:48:04;36.00;;;15.67;;
60726;SDS011;46577;49.004;12.120;2022-10-29T05:50:31;37.53;;;18.50;;
60726;SDS011;46577;49.004;12.120;2022-10-29T05:53:01;40.17;;;16.37;;
60726;SDS011;46577;49.004;12.120;2022-10-29T05:55:31;41.80;;;15.80;;
60726;SDS011;46577;49.004;12.120;2022-10-29T05:57:58;36.97;;;15.87;;
60726;SDS011;46577;49.004;12.120;2022-10-29T06:00:26;39.83;;;15.97;;
60726;SDS011;46577;49.004;12.120;2022-10-29T06:02:53;43.33;;;15.00;;
60726;SDS011;46577;49.004;12.120;2022-10-29T06:05:19;41.07;;;18.23;;
60726;SDS011;46577;49.004;12.120;2022-10-29T06:07:45;31.80;;;16.30;;
60726;SDS011;46577;49.004;12.120;2022-10-29T06:10:10;28.87;;;15.60;;
60726;SDS011;46577;49.004;12.120;2022-10-29T06:12:36;36.67;;;15.57;;
60726;SDS011;46577;49.004;12.120;2022-10-29T06:15:01;42.43;;;16.73;;
60726;SDS011;46577;49.004;12.120;2022-10-29T06:17:27;30.00;;;16.23;;
60726;SDS011;46577;49.004;12.120;2022-10-29T06:19:53;35.27;;;16.57;;
60726;SDS011;46577;49.004;12.120;2022-10-29T06:22:18;36.43;;;16.37;;
60726;SDS011;46577;49.004;12.120;2022-10-29T06:24:44;30.00;;;15.40;;
60726;SDS011;46577;49.004;12.120;2022-10-29T06:27:09;35.93;;;16.60;;
60726;SDS011;46577;49.004;12.120;2022-10-29T06:29:35;31.57;;;14.67;;
60726;SDS011;46577;49.004;12.120;2022-10-29T06:32:01;33.53;;;15.30;;
60726;SDS011;46577;49.004;12.120;2022-10-29T06:34:26;26.93;;;15.27;;
60726;SDS011;46577;49.004;12.120;2022-10-29T06:36:52;37.20;;;16.03;;
60726;SDS011;46577;49.004;12.120;2022-10-29T06:39:19;34.07;;;15.53;;
60726;SDS011;46577;49.004;12.120;2022-10-29T06:41:44;29.97;;;14.63;;
60726;SDS011;46577;49.004;12.120;2022-10-29T06:44:10;26.70;;;13.83;;
60726;SDS011;46577;49.004;12.120;2022-10-29T06:46:35;23.63;;;13.60;;
60726;SDS011;46577;49.004;12.120;2022-10-29T06:49:02;28.73;;;14.80;;
60726;SDS011;46577;49.004;12.120;2022-10-29T06:51:28;22.73;;;13.07;;
60726;SDS011;46577;49.004;12.120;2022-10-29T06:53:54;25.53;;;13.03;;
60726;SDS011;46577;49.004;12.120;2022-10-29T06:56:20;31.80;;;14.17;;
60726;SDS011;46577;49.004;12.120;2022-10-29T06:58:46;27.03;;;14.80;;
60726;SDS011;46577;49.004;12.120;2022-10-29T07:01:11;23.70;;;12.50;;
60726;SDS011;46577;49.004;12.120;2022-10-29T07:03:37;26.03;;;12.70;;
60726;SDS011;46577;49.004;12.120;2022-10-29T07:06:02;19.47;;;12.17;;
60726;SDS011;46577;49.004;12.120;2022-10-29T07:08:28;23.27;;;13.27;;
60726;SDS011;46577;49.004;12.120;2022-10-29T07:10:54;32.03;;;13.17;;
60726;SDS011;46577;49.004;12.120;2022-10-29T07:13:20;26.23;;;12.07;;
60726;SDS011;46577;49.004;12.120;2022-10-29T07:15:46;21.80;;;11.17;;
60726;SDS011;46577;49.004;12.120;2022-10-29T07:18:12;18.40;;;10.70;;
60726;SDS011;46577;49.004;12.120;2022-10-29T07:20:39;18.10;;;10.80;;
60726;SDS011;46577;49.004;12.120;2022-10-29T07:23:06;20.70;;;11.60;;
60726;SDS011;46577;49.004;12.120;2022-10-29T07:25:32;26.80;;;12.83;;
60726;SDS011;46577;49.004;12.120;2022-10-29T07:28:06;31.43;;;13.60;;
60726;SDS011;46577;49.004;12.120;2022-10-29T07:30:37;19.10;;;11.37;;
60726;SDS011;46577;49.004;12.120;2022-10-29T07:33:03;25.63;;;11.87;;
60726;SDS011;46577;49.004;12.120;2022-10-29T07:35:28;21.50;;;11.60;;
60726;SDS011;46577;49.004;12.120;2022-10-29T07:37:58;24.20;;;13.50;;
60726;SDS011;46577;49.004;12.120;2022-10-29T07:40:24;21.60;;;12.93;;
60726;SDS011;46577;49.004;12.120;2022-10-29T07:42:52;21.20;;;11.00;;
60726;SDS011;46577;49.004;12.120;2022-10-29T07:45:18;28.07;;;12.67;;
60726;SDS011;46577;49.004;12.120;2022-10-29T07:47:44;23.87;;;12.60;;
60726;SDS011;46577;49.004;12.120;2022-10-29T07:50:10;20.87;;;11.63;;
60726;SDS011;46577;49.004;12.120;2022-10-29T07:52:36;23.43;;;11.77;;
60726;SDS011;46577;49.004;12.120;2022-10-29T07:55:03;20.83;;;11.20;;
60726;SDS011;46577;49.004;12.120;2022-10-29T07:57:29;23.83;;;11.13;;
60726;SDS011;46577;49.004;12.120;2022-10-29T07:59:54;23.20;;;12.37;;
60726;SDS011;46577;49.004;12.120;2022-10-29T08:02:20;25.60;;;11.20;;
60726;SDS011;46577;49.004;12.120;2022-10-29T08:04:46;22.77;;;12.37;;
60726;SDS011;46577;49.004;12.120;2022-10-29T08:07:11;19.07;;;11.03;;
60726;SDS011;46577;49.004;12.120;2022-10-29T08:09:37;22.90;;;11.97;;
60726;SDS011;46577;49.004;12.120;2022-10-29T08:12:02;25.40;;;12.97;;
60726;SDS011;46577;49.004;12.120;2022-10-29T08:14:30;20.47;;;12.93;;
60726;SDS011;46577;49.004;12.120;2022-10-29T08:16:56;22.23;;;12.00;;
60726;SDS011;46577;49.004;12.120;2022-10-29T08:19:22;22.30;;;11.47;;
60726;SDS011;46577;49.004;12.120;2022-10-29T08:21:47;23.30;;;11.70;;
60726;SDS011;46577;49.004;12.120;2022-10-29T08:24:13;22.40;;;11.10;;
60726;SDS011;46577;49.004;12.120;2022-10-29T08:26:38;29.63;;;13.93;;
60726;SDS011;46577;49.004;12.120;2022-10-29T08:29:04;21.30;;;11.07;;
60726;SDS011;46577;49.004;12.120;2022-10-29T08:31:30;19.10;;;11.17;;
60726;SDS011;46577;49.004;12.120;2022-10-29T08:33:55;22.93;;;11.60;;
60726;SDS011;46577;49.004;12.120;2022-10-29T08:36:21;21.33;;;11.50;;
60726;SDS011;46577;49.004;12.120;2022-10-29T08:38:46;16.47;;;10.33;;
60726;SDS011;46577;49.004;12.120;2022-10-29T08:46:47;19.07;;;11.53;;
60726;SDS011;46577;49.004;12.120;2022-10-29T08:49:25;17.90;;;10.77;;
60726;SDS011;46577;49.004;12.120;2022-10-29T08:52:02;22.70;;;11.33;;
60726;SDS011;46577;49.004;12.120;2022-10-29T08:54:32;20.27;;;11.53;;
60726;SDS011;46577;49.004;12.120;2022-10-29T08:57:03;23.30;;;11.43;;
60726;SDS011;46577;49.004;12.120;2022-10-29T08:59:36;33.47;;;12.60;;
60726;SDS011;46577;49.004;12.120;2022-10-29T09:02:11;19.50;;;12.00;;
60726;SDS011;46577;49.004;12.120;2022-10-29T09:04:40;17.30;;;11.20;;
60726;SDS011;46577;49.004;12.120;2022-10-29T09:10:53;20.33;;;9.50;;
60726;SDS011;46577;49.004;12.120;2022-10-29T09:12:55;15.80;;;9.83;;
60726;SDS011;46577;49.004;12.120;2022-10-29T09:15:43;19.90;;;9.87;;
60726;SDS011;46577;49.004;12.120;2022-10-29T09:18:20;14.70;;;9.20;;
60726;SDS011;46577;49.004;12.120;2022-10-29T09:20:53;13.50;;;7.70;;
60726;SDS011;46577;49.004;12.120;2022-10-29T09:26:36;10.97;;;7.80;;
60726;SDS011;46577;49.004;12.120;2022-10-29T09:32:23;15.37;;;8.10;;
60726;SDS011;46577;49.004;12.120;2022-10-29T09:35:14;16.57;;;9.20;;
60726;SDS011;46577;49.004;12.120;2022-10-29T09:46:12;12.27;;;8.63;;
60726;SDS011;46577;49.004;12.120;2022-10-29T09:54:37;13.63;;;8.57;;
60726;SDS011;46577;49.004;12.120;2022-10-29T09:57:03;12.67;;;8.63;;
60726;SDS011;46577;49.004;12.120;2022-10-29T10:02:06;13.40;;;7.67;;
60726;SDS011;46577;49.004;12.120;2022-10-29T10:04:48;12.47;;;7.80;;
60726;SDS011;46577;49.004;12.120;2022-10-29T10:07:18;18.27;;;8.17;;
60726;SDS011;46577;49.004;12.120;2022-10-29T10:12:45;11.00;;;8.23;;
60726;SDS011;46577;49.004;12.120;2022-10-29T10:15:18;13.50;;;8.60;;
60726;SDS011;46577;49.004;12.120;2022-10-29T10:17:54;10.93;;;7.83;;
60726;SDS011;46577;49.004;12.120;2022-10-29T10:21:03;13.17;;;7.53;;
60726;SDS011;46577;49.004;12.120;2022-10-29T10:23:47;10.80;;;6.20;;
60726;SDS011;46577;49.004;12.120;2022-10-29T10:29:19;13.37;;;7.37;;
60726;SDS011;46577;49.004;12.120;2022-10-29T10:32:08;12.40;;;6.60;;
60726;SDS011;46577;49.004;12.120;2022-10-29T10:34:35;11.40;;;6.90;;
60726;SDS011;46577;49.004;12.120;2022-10-29T10:39:35;13.50;;;7.83;;
60726;SDS011;46577;49.004;12.120;2022-10-29T10:42:13;11.83;;;6.27;;
60726;SDS011;46577;49.004;12.120;2022-10-29T10:44:49;9.00;;;6.87;;
60726;SDS011;46577;49.004;12.120;2022-10-29T10:47:20;9.30;;;6.93;;
60726;SDS011;46577;49.004;12.120;2022-10-29T10:49:48;7.47;;;5.77;;
60726;SDS011;46577;49.004;12.120;2022-10-29T10:52:17;9.00;;;5.53;;
60726;SDS011;46577;49.004;12.120;2022-10-29T10:55:00;13.20;;;6.20;;
60726;SDS011;46577;49.004;12.120;2022-10-29T10:57:33;10.73;;;6.13;;
60726;SDS011;46577;49.004;12.120;2022-10-29T11:00:05;7.33;;;5.80;;
60726;SDS011;46577;49.004;12.120;2022-10-29T11:02:59;9.10;;;5.90;;
60726;SDS011;46577;49.004;12.120;2022-10-29T11:11:10;9.67;;;5.93;;
60726;SDS011;46577;49.004;12.120;2022-10-29T11:13:51;8.73;;;6.70;;
60726;SDS011;46577;49.004;12.120;2022-10-29T11:16:20;11.90;;;6.30;;
60726;SDS011;46577;49.004;12.120;2022-10-29T11:24:59;8.90;;;5.83;;
60726;SDS011;46577;49.004;12.120;2022-10-29T11:27:53;9.00;;;6.00;;
60726;SDS011;46577;49.004;12.120;2022-10-29T11:30:20;7.30;;;5.80;;
60726;SDS011;46577;49.004;12.120;2022-10-29T11:35:53;10.63;;;5.70;;
60726;SDS011;46577;49.004;12.120;2022-10-29T11:38:53;11.83;;;5.73;;
60726;SDS011;46577;49.004;12.120;2022-10-29T11:43:49;9.63;;;5.30;;
60726;SDS011;46577;49.004;12.120;2022-10-29T11:51:55;8.20;;;5.00;;
60726;SDS011;46577;49.004;12.120;2022-10-29T12:10:58;8.77;;;5.50;;
60726;SDS011;46577;49.004;12.120;2022-10-29T12:14:09;10.27;;;5.17;;
60726;SDS011;46577;49.004;12.120;2022-10-29T12:16:30;6.07;;;4.90;;
60726;SDS011;46577;49.004;12.120;2022-10-29T12:22:07;7.47;;;4.97;;
60726;SDS011;46577;49.004;12.120;2022-10-29T12:27:21;10.17;;;3.93;;
60726;SDS011;46577;49.004;12.120;2022-10-29T12:30:06;7.60;;;5.10;;
60726;SDS011;46577;49.004;12.120;2022-10-29T12:32:40;8.83;;;4.40;;
60726;SDS011;46577;49.004;12.120;2022-10-29T12:35:21;12.13;;;5.40;;
60726;SDS011;46577;49.004;12.120;2022-10-29T12:38:15;8.50;;;4.93;;
60726;SDS011;46577;49.004;12.120;2022-10-29T12:40:57;10.07;;;5.10;;
60726;SDS011;46577;49.004;12.120;2022-10-29T12:43:28;18.33;;;5.50;;
60726;SDS011;46577;49.004;12.120;2022-10-29T12:46:01;5.90;;;4.83;;
60726;SDS011;46577;49.004;12.120;2022-10-29T12:48:44;9.97;;;5.53;;
60726;SDS011;46577;49.004;12.120;2022-10-29T12:51:27;8.87;;;5.10;;
60726;SDS011;46577;49.004;12.120;2022-10-29T12:56:47;7.37;;;4.70;;
60726;SDS011;46577;49.004;12.120;2022-10-29T13:01:49;6.97;;;5.00;;
60726;SDS011;46577;49.004;12.120;2022-10-29T13:04:25;12.13;;;5.33;;
60726;SDS011;46577;49.004;12.120;2022-10-29T13:09:26;7.93;;;5.23;;
60726;SDS011;46577;49.004;12.120;2022-10-29T13:15:09;13.07;;;4.93;;
60726;SDS011;46577;49.004;12.120;2022-10-29T13:17:39;7.80;;;5.30;;
60726;SDS011;46577;49.004;12.120;2022-10-29T13:22:59;10.93;;;5.83;;
60726;SDS011;46577;49.004;12.120;2022-10-29T13:27:57;7.10;;;4.57;;
60726;SDS011;46577;49.004;12.120;2022-10-29T13:30:44;9.37;;;4.30;;
60726;SDS011;46577;49.004;12.120;2022-10-29T13:41:20;11.33;;;4.03;;
60726;SDS011;46577;49.004;12.120;2022-10-29T13:43:56;4.80;;;3.80;;
60726;SDS011;46577;49.004;12.120;2022-10-29T13:52:09;9.20;;;5.43;;
60726;SDS011;46577;49.004;12.120;2022-10-29T13:55:03;13.10;;;6.40;;
60726;SDS011;46577;49.004;12.120;2022-10-29T14:02:53;16.37;;;5.77;;
60726;SDS011;46577;49.004;12.120;2022-10-29T14:10:30;19.70;;;5.70;;
60726;SDS011;46577;49.004;12.120;2022-10-29T14:15:38;6.57;;;4.70;;
60726;SDS011;46577;49.004;12.120;2022-10-29T14:20:55;9.70;;;4.77;;
60726;SDS011;46577;49.004;12.120;2022-10-29T14:23:23;13.03;;;5.10;;
60726;SDS011;46577;49.004;12.120;2022-10-29T14:25:50;19.10;;;5.20;;
60726;SDS011;46577;49.004;12.120;2022-10-29T14:28:27;10.70;;;4.60;;
60726;SDS011;46577;49.004;12.120;2022-10-29T14:33:54;14.23;;;5.20;;
60726;SDS011;46577;49.004;12.120;2022-10-29T14:36:33;12.13;;;4.87;;
60726;SDS011;46577;49.004;12.120;2022-10-29T14:39:12;11.50;;;5.37;;
60726;SDS011;46577;49.004;12.120;2022-10-29T14:41:44;7.90;;;4.73;;
60726;SDS011;46577;49.004;12.120;2022-10-29T14:44:15;7.77;;;4.20;;
60726;SDS011;46577;49.004;12.120;2022-10-29T14:46:42;7.40;;;3.70;;
60726;SDS011;46577;49.004;12.120;2022-10-29T14:49:17;9.70;;;4.60;;
60726;SDS011;46577;49.004;12.120;2022-10-29T14:54:22;11.27;;;4.70;;
60726;SDS011;46577;49.004;12.120;2022-10-29T14:57:00;12.60;;;5.33;;
60726;SDS011;46577;49.004;12.120;2022-10-29T14:59:30;8.57;;;4.40;;
60726;SDS011;46577;49.004;12.120;2022-10-29T15:01:58;9.90;;;4.47;;
60726;SDS011;46577;49.004;12.120;2022-10-29T15:04:26;15.43;;;5.00;;
60726;SDS011;46577;49.004;12.120;2022-10-29T15:06:54;9.37;;;5.20;;
60726;SDS011;46577;49.004;12.120;2022-10-29T15:09:39;10.07;;;4.87;;
60726;SDS011;46577;49.004;12.120;2022-10-29T15:12:06;8.70;;;5.43;;
60726;SDS011;46577;49.004;12.120;2022-10-29T15:14:47;10.80;;;4.50;;
60726;SDS011;46577;49.004;12.120;2022-10-29T15:17:26;8.53;;;4.60;;
60726;SDS011;46577;49.004;12.120;2022-10-29T15:19:58;10.40;;;5.00;;
60726;SDS011;46577;49.004;12.120;2022-10-29T15:22:38;9.90;;;4.73;;
60726;SDS011;46577;49.004;12.120;2022-10-29T15:25:07;13.50;;;5.90;;
60726;SDS011;46577;49.004;12.120;2022-10-29T15:27:42;13.57;;;5.43;;
60726;SDS011;46577;49.004;12.120;2022-10-29T15:30:16;16.63;;;5.50;;
60726;SDS011;46577;49.004;12.120;2022-10-29T15:32:47;20.40;;;7.20;;
60726;SDS011;46577;49.004;12.120;2022-10-29T15:35:17;12.53;;;5.97;;
60726;SDS011;46577;49.004;12.120;2022-10-29T15:37:45;17.63;;;5.70;;
60726;SDS011;46577;49.004;12.120;2022-10-29T15:40:15;12.83;;;6.40;;
60726;SDS011;46577;49.004;12.120;2022-10-29T15:42:41;10.90;;;7.27;;
60726;SDS011;46577;49.004;12.120;2022-10-29T15:47:35;14.90;;;7.00;;
60726;SDS011;46577;49.004;12.120;2022-10-29T15:50:15;14.33;;;8.30;;
60726;SDS011;46577;49.004;12.120;2022-10-29T15:57:45;14.43;;;7.83;;
60726;SDS011;46577;49.004;12.120;2022-10-29T16:00:12;18.97;;;8.70;;
60726;SDS011;46577;49.004;12.120;2022-10-29T16:02:38;16.40;;;8.00;;
60726;SDS011;46577;49.004;12.120;2022-10-29T16:05:04;18.20;;;10.53;;
60726;SDS011;46577;49.004;12.120;2022-10-29T16:07:30;16.40;;;8.87;;
60726;SDS011;46577;49.004;12.120;2022-10-29T16:09:56;16.20;;;10.07;;
60726;SDS011;46577;49.004;12.120;2022-10-29T16:12:23;18.00;;;9.67;;
60726;SDS011;46577;49.004;12.120;2022-10-29T16:14:49;26.70;;;10.30;;
60726;SDS011;46577;49.004;12.120;2022-10-29T16:17:18;14.33;;;7.93;;
60726;SDS011;46577;49.004;12.120;2022-10-29T16:19:47;23.03;;;9.10;;
60726;SDS011;46577;49.004;12.120;2022-10-29T16:22:18;14.90;;;8.03;;
60726;SDS011;46577;49.004;12.120;2022-10-29T16:24:56;15.03;;;8.90;;
60726;SDS011;46577;49.004;12.120;2022-10-29T16:27:22;13.33;;;7.20;;
60726;SDS011;46577;49.004;12.120;2022-10-29T16:29:48;16.77;;;8.93;;
60726;SDS011;46577;49.004;12.120;2022-10-29T16:32:21;22.37;;;8.37;;
60726;SDS011;46577;49.004;12.120;2022-10-29T16:34:48;24.70;;;10.40;;
60726;SDS011;46577;49.004;12.120;2022-10-29T16:37:15;16.40;;;8.50;;
60726;SDS011;46577;49.004;12.120;2022-10-29T16:39:42;16.70;;;8.50;;
60726;SDS011;46577;49.004;12.120;2022-10-29T16:42:50;11.80;;;7.67;;
60726;SDS011;46577;49.004;12.120;2022-10-29T16:44:58;15.80;;;8.93;;
60726;SDS011;46577;49.004;12.120;2022-10-29T16:47:24;14.93;;;9.80;;
60726;SDS011;46577;49.004;12.120;2022-10-29T16:49:50;17.47;;;10.10;;
60726;SDS011;46577;49.004;12.120;2022-10-29T16:52:16;17.40;;;9.27;;
60726;SDS011;46577;49.004;12.120;2022-10-29T16:54:42;27.93;;;10.20;;
60726;SDS011;46577;49.004;12.120;2022-10-29T16:57:07;16.13;;;9.43;;
60726;SDS011;46577;49.004;12.120;2022-10-29T16:59:33;17.07;;;8.93;;
60726;SDS011;46577;49.004;12.120;2022-10-29T17:01:58;15.70;;;8.30;;
60726;SDS011;46577;49.004;12.120;2022-10-29T17:04:24;12.20;;;8.13;;
60726;SDS011;46577;49.004;12.120;2022-10-29T17:06:51;18.73;;;8.63;;
60726;SDS011;46577;49.004;12.120;2022-10-29T17:09:16;18.13;;;9.30;;
60726;SDS011;46577;49.004;12.120;2022-10-29T17:11:42;14.80;;;7.80;;
60726;SDS011;46577;49.004;12.120;2022-10-29T17:14:07;13.50;;;7.47;;
60726;SDS011;46577;49.004;12.120;2022-10-29T17:16:33;13.00;;;7.70;;
60726;SDS011;46577;49.004;12.120;2022-10-29T17:18:59;22.47;;;9.80;;
60726;SDS011;46577;49.004;12.120;2022-10-29T17:21:24;15.90;;;8.80;;
60726;SDS011;46577;49.004;12.120;2022-10-29T17:23:50;14.67;;;8.90;;
60726;SDS011;46577;49.004;12.120;2022-10-29T17:26:15;18.60;;;8.77;;
60726;SDS011;46577;49.004;12.120;2022-10-29T17:28:41;14.80;;;7.93;;